Time,TemperatureF,DewpointF,PressureIn,WindDirection,WindDirectionDegrees,WindSpeedMPH,WindSpeedGustMPH,Humidity,HourlyPrecipIn,Conditions,Clouds,dailyrainin,SoftwareType,DateUTC
2013-10-03 00:00:00,67.6,33.3,29.57,South,185,0.0,0.0,28,0.00,CLR,,0.00,WeatherDisplay:10.37,2013-10-03 07:00:00,
2013-10-03 00:10:00,67.3,32.1,29.57,South,185,1.0,3.0,27,0.00,CLR,,0.00,WeatherDisplay:10.37,2013-10-03 07:10:00,
2013-10-03 00:20:00,68.4,29.2,29.56,South,185,0.0,5.0,23,0.00,CLR,,0.00,WeatherDisplay:10.37,2013-10-03 07:20:00,
2013-10-03 00:30:00,67.4,30.4,29.56,South,189,3.0,5.0,25,0.00,CLR,,0.00,WeatherDisplay:10.37,2013-10-03 07:30:00,
2013-10-03 00:40:00,66.3,30.4,29.56,South,189,0.0,0.0,26,0.00,CLR,,0.00,WeatherDisplay:10.37,2013-10-03 07:40:00,
2013-10-03 00:50:00,65.3,30.4,29.57,South,189,0.0,2.0,27,0.00,CLR,,0.00,WeatherDisplay:10.37,2013-10-03 07:50:00,
2013-10-03 01:00:00,64.3,29.5,29.58,South,189,0.0,0.0,27,0.00,CLR,,0.00,WeatherDisplay:10.37,2013-10-03 08:00:00,
2013-10-03 01:10:00,63.4,28.8,29.58,South,189,0.0,0.0,27,0.00,CLR,,0.00,WeatherDisplay:10.37,2013-10-03 08:10:00,
2013-10-03 01:20:00,62.0,29.3,29.58,South,189,0.0,0.0,29,0.00,CLR,,0.00,WeatherDisplay:10.37,2013-10-03 08:20:00,
2013-10-03 01:30:00,61.8,28.3,29.59,South,189,0.0,0.0,28,0.00,CLR,,0.00,WeatherDisplay:10.37,2013-10-03 08:30:00,
2013-10-03 01:40:00,61.3,29.5,29.59,South,189,0.0,0.0,30,0.00,CLR,,0.00,WeatherDisplay:10.37,2013-10-03 08:40:00,
2013-10-03 01:50:00,61.0,29.3,29.59,South,189,0.0,0.0,30,0.00,CLR,,0.00,WeatherDisplay:10.37,2013-10-03 08:50:00,
2013-10-03 02:00:00,61.8,28.3,29.59,SSW,202,2.0,6.0,28,0.00,CLR,,0.00,WeatherDisplay:10.37,2013-10-03 09:00:00,
2013-10-03 02:10:00,62.9,29.2,29.57,SSW,209,0.0,3.0,28,0.00,CLR,,0.00,WeatherDisplay:10.37,2013-10-03 09:10:00,
2013-10-03 02:20:00,61.3,28.7,29.58,SSW,209,0.0,0.0,29,0.00,CLR,,0.00,WeatherDisplay:10.37,2013-10-03 09:20:00,
2013-10-03 02:30:00,62.0,28.5,29.57,South,186,2.0,7.0,28,0.00,CLR,,0.00,WeatherDisplay:10.37,2013-10-03 09:30:00,
2013-10-03 02:40:00,62.9,28.4,29.57,South,169,1.0,6.0,27,0.00,CLR,,0.00,WeatherDisplay:10.37,2013-10-03 09:40:00,
2013-10-03 02:50:00,64.9,28.2,29.56,South,182,3.0,9.0,25,0.00,CLR,,0.00,WeatherDisplay:10.37,2013-10-03 09:50:00,
2013-10-03 03:00:00,63.7,28.1,29.57,South,186,0.0,5.0,26,0.00,CLR,,0.00,WeatherDisplay:10.37,2013-10-03 10:00:00,
2013-10-03 03:10:00,62.7,27.3,29.57,South,186,0.0,0.0,26,0.00,CLR,,0.00,WeatherDisplay:10.37,2013-10-03 10:10:00,
2013-10-03 03:15:00,62.2,26.9,29.57,South,186,0.0,0.0,26,0.00,CLR,,0.00,WeatherDisplay:10.37,2013-10-03 10:15:00,
2013-10-03 03:20:00,60.9,26.7,29.57,South,186,0.0,0.0,27,0.00,CLR,,0.00,WeatherDisplay:10.37,2013-10-03 10:20:00,
2013-10-03 03:30:00,60.2,25.1,29.58,South,186,0.0,0.0,26,0.00,CLR,,0.00,WeatherDisplay:10.37,2013-10-03 10:30:00,
2013-10-03 03:40:00,60.2,25.1,29.58,South,186,0.0,2.0,26,0.00,CLR,,0.00,WeatherDisplay:10.37,2013-10-03 10:40:00,
2013-10-03 03:50:00,58.9,24.9,29.58,South,186,0.0,0.0,27,0.00,CLR,,0.00,WeatherDisplay:10.37,2013-10-03 10:50:00,
2013-10-03 04:00:00,57.6,23.8,29.59,South,186,0.0,0.0,27,0.00,CLR,,0.00,WeatherDisplay:10.37,2013-10-03 11:00:00,
2013-10-03 04:10:00,58.9,23.1,29.59,South,186,1.0,5.0,25,0.00,CLR,,0.00,WeatherDisplay:10.37,2013-10-03 11:10:00,
2013-10-03 04:20:00,60.2,23.2,29.58,South,187,0.0,0.0,24,0.00,CLR,,0.00,WeatherDisplay:10.37,2013-10-03 11:20:00,
2013-10-03 04:30:00,61.2,24.1,29.59,South,187,0.0,0.0,24,0.00,CLR,,0.00,WeatherDisplay:10.37,2013-10-03 11:30:00,
2013-10-03 04:40:00,61.0,26.7,29.59,SE,141,2.0,4.0,27,0.00,CLR,,0.00,WeatherDisplay:10.37,2013-10-03 11:40:00,
2013-10-03 04:50:00,60.9,27.5,29.58,SE,135,0.0,0.0,28,0.00,CLR,,0.00,WeatherDisplay:10.37,2013-10-03 11:50:00,
2013-10-03 05:00:00,59.9,26.7,29.58,SE,135,0.0,0.0,28,0.00,CLR,,0.00,WeatherDisplay:10.37,2013-10-03 12:00:00,
2013-10-03 05:10:00,59.5,27.2,29.58,SE,135,0.0,0.0,29,0.00,CLR,,0.00,WeatherDisplay:10.37,2013-10-03 12:10:00,
2013-10-03 05:20:00,58.7,27.3,29.58,SE,134,0.0,0.0,30,0.00,CLR,,0.00,WeatherDisplay:10.37,2013-10-03 12:20:00,
2013-10-03 05:30:00,57.4,27.7,29.60,SE,136,1.0,3.0,32,0.00,CLR,,0.00,WeatherDisplay:10.37,2013-10-03 12:30:00,
2013-10-03 05:40:00,57.9,28.2,29.61,SE,134,0.0,0.0,32,0.00,CLR,,0.00,WeatherDisplay:10.37,2013-10-03 12:40:00,
2013-10-03 05:50:00,56.5,26.2,29.62,SE,137,1.0,5.0,31,0.00,CLR,,0.00,WeatherDisplay:10.37,2013-10-03 12:50:00,
2013-10-03 06:00:00,57.5,24.6,29.62,SE,138,0.0,0.0,28,0.00,CLR,,0.00,WeatherDisplay:10.37,2013-10-03 13:00:00,
2013-10-03 06:10:00,57.6,24.7,29.62,SE,137,1.0,3.0,28,0.00,CLR,,0.00,WeatherDisplay:10.37,2013-10-03 13:10:00,
2013-10-03 06:15:00,57.4,24.5,29.62,SE,138,0.0,6.0,28,0.00,CLR,,0.00,WeatherDisplay:10.37,2013-10-03 13:15:00,
2013-10-03 06:20:00,56.7,24.7,29.61,SE,143,0.0,6.0,29,0.00,CLR,,0.00,WeatherDisplay:10.37,2013-10-03 13:20:00,
2013-10-03 06:30:00,56.9,24.9,29.62,SE,144,0.0,0.0,29,0.00,CLR,,0.00,WeatherDisplay:10.37,2013-10-03 13:30:00,
2013-10-03 06:40:00,56.3,26.0,29.62,SE,144,0.0,0.0,31,0.00,CLR,,0.00,WeatherDisplay:10.37,2013-10-03 13:40:00,
2013-10-03 06:50:00,56.0,25.0,29.63,SE,144,0.0,0.0,30,0.00,CLR,,0.00,WeatherDisplay:10.37,2013-10-03 13:50:00,
2013-10-03 07:00:00,55.9,24.9,29.62,SE,144,0.0,1.0,30,0.00,CLR,,0.00,WeatherDisplay:10.37,2013-10-03 14:00:00,
2013-10-03 07:10:00,56.9,24.1,29.62,SE,144,0.0,0.0,28,0.00,CLR,,0.00,WeatherDisplay:10.37,2013-10-03 14:10:00,
2013-10-03 07:15:00,58.6,23.7,29.62,NW,310,1.0,9.0,26,0.00,CLR,,0.00,WeatherDisplay:10.37,2013-10-03 14:15:00,
2013-10-03 07:20:00,60.1,26.0,29.61,NW,319,2.0,5.0,27,0.00,CLR,,0.00,WeatherDisplay:10.37,2013-10-03 14:20:00,
2013-10-03 07:30:00,59.9,27.5,29.62,NW,317,3.0,5.0,29,0.00,CLR,,0.00,WeatherDisplay:10.37,2013-10-03 14:30:00,
2013-10-03 07:40:00,59.4,31.7,29.62,NW,315,0.0,1.0,35,0.00,CLR,,0.00,WeatherDisplay:10.37,2013-10-03 14:40:00,
2013-10-03 07:50:00,59.0,30.6,29.63,NW,317,0.0,0.0,34,0.00,CLR,,0.00,WeatherDisplay:10.37,2013-10-03 14:50:00,
2013-10-03 08:00:00,61.7,27.4,29.62,NW,317,1.0,5.0,27,0.00,CLR,,0.00,WeatherDisplay:10.37,2013-10-03 15:00:00,
2013-10-03 08:10:00,62.7,28.2,29.63,South,182,0.0,2.0,27,0.00,CLR,,0.00,WeatherDisplay:10.37,2013-10-03 15:10:00,
2013-10-03 08:15:00,63.5,27.0,29.63,South,181,2.0,3.0,25,0.00,CLR,,0.00,WeatherDisplay:10.37,2013-10-03 15:15:00,
2013-10-03 08:20:00,64.2,27.6,29.62,South,180,1.0,3.0,25,0.00,CLR,,0.00,WeatherDisplay:10.37,2013-10-03 15:20:00,
2013-10-03 08:30:00,66.4,24.1,29.62,WSW,237,5.0,10.0,20,0.00,CLR,,0.00,WeatherDisplay:10.37,2013-10-03 15:30:00,
2013-10-03 08:40:00,67.6,26.2,29.61,WSW,238,1.0,5.0,21,0.00,CLR,,0.00,WeatherDisplay:10.37,2013-10-03 15:40:00,
2013-10-03 08:50:00,68.8,24.8,29.61,South,180,0.0,2.0,19,0.00,CLR,,0.00,WeatherDisplay:10.37,2013-10-03 15:50:00,
2013-10-03 09:00:00,69.9,24.4,29.61,South,179,0.0,2.0,18,0.00,CLR,,0.00,WeatherDisplay:10.37,2013-10-03 16:00:00,
2013-10-03 09:10:00,71.0,25.4,29.61,South,179,0.0,0.0,18,0.00,CLR,,0.00,WeatherDisplay:10.37,2013-10-03 16:10:00,
2013-10-03 09:20:00,71.1,26.7,29.61,South,179,0.0,2.0,19,0.00,CLR,,0.00,WeatherDisplay:10.37,2013-10-03 16:20:00,
2013-10-03 09:30:00,71.6,25.8,29.61,South,179,0.0,1.0,18,0.00,CLR,,0.00,WeatherDisplay:10.37,2013-10-03 16:30:00,
2013-10-03 09:40:00,72.3,25.0,29.61,South,178,0.0,2.0,17,0.00,CLR,,0.00,WeatherDisplay:10.37,2013-10-03 16:40:00,
2013-10-03 09:50:00,72.8,25.4,29.61,SSE,160,1.0,6.0,17,0.00,CLR,,0.00,WeatherDisplay:10.37,2013-10-03 16:50:00,
2013-10-03 10:00:00,73.0,24.1,29.61,ESE,105,0.0,5.0,16,0.00,CLR,,0.00,WeatherDisplay:10.37,2013-10-03 17:00:00,
2013-10-03 10:10:00,73.7,23.1,29.61,East,85,1.0,3.0,15,0.00,CLR,,0.00,WeatherDisplay:10.37,2013-10-03 17:10:00,
2013-10-03 10:15:00,74.1,25.0,29.61,East,84,0.0,3.0,16,0.00,CLR,,0.00,WeatherDisplay:10.37,2013-10-03 17:15:00,
2013-10-03 10:20:00,74.7,22.3,29.61,North,349,6.0,10.0,14,0.00,CLR,,0.00,WeatherDisplay:10.37,2013-10-03 17:20:00,
2013-10-03 10:30:00,74.8,22.4,29.61,NW,319,5.0,12.0,14,0.00,CLR,,0.00,WeatherDisplay:10.37,2013-10-03 17:30:00,
2013-10-03 10:40:00,74.4,23.7,29.61,NW,323,3.0,10.0,15,0.00,CLR,,0.00,WeatherDisplay:10.37,2013-10-03 17:40:00,
2013-10-03 10:50:00,74.9,22.4,29.61,NW,318,2.0,7.0,14,0.00,CLR,,0.00,WeatherDisplay:10.37,2013-10-03 17:50:00,
2013-10-03 11:00:00,75.3,22.8,29.60,NW,319,1.0,4.0,14,0.00,CLR,,0.00,WeatherDisplay:10.37,2013-10-03 18:00:00,
2013-10-03 11:10:00,76.0,23.3,29.60,NW,319,0.0,7.0,14,0.00,CLR,,0.00,WeatherDisplay:10.37,2013-10-03 18:10:00,
2013-10-03 11:20:00,76.5,22.0,29.59,NW,310,1.0,9.0,13,0.00,CLR,,0.00,WeatherDisplay:10.37,2013-10-03 18:20:00,
2013-10-03 11:30:00,76.7,22.1,29.59,NW,307,1.0,6.0,13,0.00,CLR,,0.00,WeatherDisplay:10.37,2013-10-03 18:30:00,
2013-10-03 11:40:00,77.2,22.5,29.59,WNW,296,3.0,7.0,13,0.00,CLR,,0.00,WeatherDisplay:10.37,2013-10-03 18:40:00,
2013-10-03 11:50:00,77.7,22.9,29.58,WNW,295,2.0,7.0,13,0.00,CLR,,0.00,WeatherDisplay:10.37,2013-10-03 18:50:00,
2013-10-03 12:00:00,77.7,22.9,29.58,WNW,296,0.0,6.0,13,0.00,CLR,,0.00,WeatherDisplay:10.37,2013-10-03 19:00:00,
2013-10-03 12:10:00,77.7,22.9,29.58,West,280,2.0,5.0,13,0.00,CLR,,0.00,WeatherDisplay:10.37,2013-10-03 19:10:00,
2013-10-03 12:20:00,78.5,21.6,29.58,West,274,3.0,6.0,12,0.00,CLR,,0.00,WeatherDisplay:10.37,2013-10-03 19:20:00,
2013-10-03 12:30:00,78.9,21.9,29.58,West,277,0.0,4.0,12,0.00,CLR,,0.00,WeatherDisplay:10.37,2013-10-03 19:30:00,
2013-10-03 12:40:00,80.4,23.1,29.58,ENE,64,1.0,7.0,12,0.00,CLR,,0.00,WeatherDisplay:10.37,2013-10-03 19:40:00,
2013-10-03 12:50:00,79.0,22.0,29.58,NW,322,0.0,10.0,12,0.00,CLR,,0.00,WeatherDisplay:10.37,2013-10-03 19:50:00,
2013-10-03 13:00:00,79.6,20.4,29.58,NW,312,5.0,7.0,11,0.00,CLR,,0.00,WeatherDisplay:10.37,2013-10-03 20:00:00,
2013-10-03 13:10:00,79.3,18.0,29.58,WNW,301,3.0,10.0,10,0.00,CLR,,0.00,WeatherDisplay:10.37,2013-10-03 20:10:00,
2013-10-03 13:15:00,79.9,18.4,29.58,WNW,293,5.0,9.0,10,0.00,CLR,,0.00,WeatherDisplay:10.37,2013-10-03 20:15:00,
2013-10-03 13:20:00,80.2,18.6,29.58,WNW,300,2.0,9.0,10,0.00,CLR,,0.00,WeatherDisplay:10.37,2013-10-03 20:20:00,
2013-10-03 13:30:00,80.1,18.6,29.57,WNW,299,2.0,7.0,10,0.00,CLR,,0.00,WeatherDisplay:10.37,2013-10-03 20:30:00,
2013-10-03 13:40:00,80.7,16.6,29.57,NNW,338,5.0,9.0,9,0.00,CLR,,0.00,WeatherDisplay:10.37,2013-10-03 20:40:00,
2013-10-03 13:50:00,80.5,16.4,29.56,WNW,294,1.0,6.0,9,0.00,CLR,,0.00,WeatherDisplay:10.37,2013-10-03 20:50:00,
2013-10-03 14:00:00,80.6,16.5,29.56,WNW,302,0.0,5.0,9,0.00,CLR,,0.00,WeatherDisplay:10.37,2013-10-03 21:00:00,
2013-10-03 14:10:00,82.5,17.9,29.56,WNW,302,0.0,4.0,9,0.00,CLR,,0.00,WeatherDisplay:10.37,2013-10-03 21:10:00,
2013-10-03 14:20:00,82.0,14.8,29.56,WNW,294,1.0,4.0,8,0.00,CLR,,0.00,WeatherDisplay:10.37,2013-10-03 21:20:00,
2013-10-03 14:30:00,81.6,14.5,29.56,NW,305,3.0,10.0,8,0.00,CLR,,0.00,WeatherDisplay:10.37,2013-10-03 21:30:00,
2013-10-03 14:40:00,81.5,14.5,29.56,WNW,301,2.0,5.0,8,0.00,CLR,,0.00,WeatherDisplay:10.37,2013-10-03 21:40:00,
2013-10-03 14:50:00,82.6,15.3,29.56,NW,309,5.0,10.0,8,0.00,CLR,,0.00,WeatherDisplay:10.37,2013-10-03 21:50:00,
2013-10-03 15:00:00,83.2,18.5,29.56,NNW,339,3.0,6.0,9,0.00,CLR,,0.00,WeatherDisplay:10.37,2013-10-03 22:00:00,
2013-10-03 15:10:00,82.4,17.8,29.56,NW,324,5.0,10.0,9,0.00,CLR,,0.00,WeatherDisplay:10.37,2013-10-03 22:10:00,
2013-10-03 15:20:00,83.0,20.8,29.56,North,1,1.0,9.0,10,0.00,CLR,,0.00,WeatherDisplay:10.37,2013-10-03 22:20:00,
2013-10-03 15:30:00,83.4,21.1,29.56,NE,42,2.0,8.0,10,0.00,CLR,,0.00,WeatherDisplay:10.37,2013-10-03 22:30:00,
2013-10-03 15:40:00,84.0,21.5,29.56,NE,51,1.0,6.0,10,0.00,CLR,,0.00,WeatherDisplay:10.37,2013-10-03 22:40:00,
2013-10-03 15:50:00,83.2,20.9,29.56,North,3,5.0,12.0,10,0.00,CLR,,0.00,WeatherDisplay:10.37,2013-10-03 22:50:00,
2013-10-03 16:00:00,83.2,18.5,29.56,NNE,32,3.0,7.0,9,0.00,CLR,,0.00,WeatherDisplay:10.37,2013-10-03 23:00:00,
2013-10-03 16:10:00,82.6,20.5,29.56,ENE,73,1.0,5.0,10,0.00,CLR,,0.00,WeatherDisplay:10.37,2013-10-03 23:10:00,
2013-10-03 16:20:00,82.6,20.5,29.56,ENE,76,2.0,7.0,10,0.00,CLR,,0.00,WeatherDisplay:10.37,2013-10-03 23:20:00,
2013-10-03 16:30:00,82.4,17.9,29.57,ENE,61,3.0,8.0,9,0.00,CLR,,0.00,WeatherDisplay:10.37,2013-10-03 23:30:00,
2013-10-03 16:40:00,81.9,17.5,29.58,ENE,66,5.0,9.0,9,0.00,CLR,,0.00,WeatherDisplay:10.37,2013-10-03 23:40:00,
2013-10-03 16:50:00,81.6,17.3,29.58,ENE,65,5.0,8.0,9,0.00,CLR,,0.00,WeatherDisplay:10.37,2013-10-03 23:50:00,
2013-10-03 17:00:00,81.0,21.5,29.59,ENE,68,7.0,12.0,11,0.00,CLR,,0.00,WeatherDisplay:10.37,2013-10-04 00:00:00,
2013-10-03 17:10:00,80.9,21.4,29.59,East,82,3.0,5.0,11,0.00,CLR,,0.00,WeatherDisplay:10.37,2013-10-04 00:10:00,
2013-10-03 17:20:00,80.7,21.3,29.59,ENE,73,1.0,8.0,11,0.00,CLR,,0.00,WeatherDisplay:10.37,2013-10-04 00:20:00,
2013-10-03 17:30:00,80.4,25.0,29.59,ENE,70,7.0,15.0,13,0.00,CLR,,0.00,WeatherDisplay:10.37,2013-10-04 00:30:00,
2013-10-03 17:40:00,79.8,24.6,29.60,ENE,78,7.0,12.0,13,0.00,CLR,,0.00,WeatherDisplay:10.37,2013-10-04 00:40:00,
2013-10-03 17:50:00,79.2,25.9,29.60,ENE,71,7.0,12.0,14,0.00,CLR,,0.00,WeatherDisplay:10.37,2013-10-04 00:50:00,
2013-10-03 18:00:00,78.8,27.2,29.61,ENE,78,6.0,12.0,15,0.00,CLR,,0.00,WeatherDisplay:10.37,2013-10-04 01:00:00,
2013-10-03 18:10:00,78.5,27.0,29.61,ENE,76,5.0,9.0,15,0.00,CLR,,0.00,WeatherDisplay:10.37,2013-10-04 01:10:00,
2013-10-03 18:20:00,77.4,24.5,29.62,ENE,74,9.0,16.0,14,0.00,CLR,,0.00,WeatherDisplay:10.37,2013-10-04 01:20:00,
2013-10-03 18:30:00,76.8,24.0,29.62,ENE,74,8.0,14.0,14,0.00,CLR,,0.00,WeatherDisplay:10.37,2013-10-04 01:30:00,
2013-10-03 18:40:00,76.3,21.8,29.63,ENE,72,10.0,17.0,13,0.00,CLR,,0.00,WeatherDisplay:10.37,2013-10-04 01:40:00,
2013-10-03 18:50:00,75.6,21.2,29.63,ENE,76,8.0,16.0,13,0.00,CLR,,0.00,WeatherDisplay:10.37,2013-10-04 01:50:00,
2013-10-03 19:00:00,75.0,18.9,29.65,ENE,73,9.0,16.0,12,0.00,CLR,,0.00,WeatherDisplay:10.37,2013-10-04 02:00:00,
2013-10-03 19:10:00,74.4,18.4,29.66,ENE,71,2.0,12.0,12,0.00,CLR,,0.00,WeatherDisplay:10.37,2013-10-04 02:10:00,
2013-10-03 19:20:00,73.5,19.6,29.67,ENE,60,1.0,5.0,13,0.00,CLR,,0.00,WeatherDisplay:10.37,2013-10-04 02:20:00,
2013-10-03 19:30:00,72.2,18.6,29.68,NNW,337,6.0,20.0,13,0.00,CLR,,0.00,WeatherDisplay:10.37,2013-10-04 02:30:00,
2013-10-03 19:40:00,71.0,19.3,29.68,NNW,332,9.0,15.0,14,0.00,CLR,,0.00,WeatherDisplay:10.37,2013-10-04 02:40:00,
2013-10-03 19:50:00,70.4,18.9,29.69,NNW,329,13.0,25.0,14,0.00,CLR,,0.00,WeatherDisplay:10.37,2013-10-04 02:50:00,
2013-10-03 20:00:00,69.8,18.4,29.70,NNW,333,13.0,23.0,14,0.00,CLR,,0.00,WeatherDisplay:10.37,2013-10-04 03:00:00,
2013-10-03 20:10:00,69.3,19.6,29.71,NNW,333,12.0,23.0,15,0.00,CLR,,0.00,WeatherDisplay:10.37,2013-10-04 03:10:00,
2013-10-03 20:15:00,69.1,19.5,29.71,NNW,332,13.0,22.0,15,0.00,CLR,,0.00,WeatherDisplay:10.37,2013-10-04 03:15:00,
2013-10-03 20:20:00,68.9,19.3,29.72,NNW,334,14.0,23.0,15,0.00,CLR,,0.00,WeatherDisplay:10.37,2013-10-04 03:20:00,
2013-10-03 20:30:00,68.6,19.1,29.70,NNW,331,12.0,24.0,15,0.00,CLR,,0.00,WeatherDisplay:10.37,2013-10-04 03:30:00,
2013-10-03 20:40:00,68.1,18.7,29.72,NNW,330,13.0,21.0,15,0.00,CLR,,0.00,WeatherDisplay:10.37,2013-10-04 03:40:00,
2013-10-03 20:50:00,67.8,18.4,29.72,NNW,343,14.0,21.0,15,0.00,CLR,,0.00,WeatherDisplay:10.37,2013-10-04 03:50:00,
2013-10-03 21:00:00,67.4,18.1,29.72,NNW,341,13.0,24.0,15,0.00,CLR,,0.00,WeatherDisplay:10.37,2013-10-04 04:00:00,
2013-10-03 21:35:00,66.3,18.7,29.74,NNW,332,10.0,20.0,16,0.00,CLR,,0.00,WeatherDisplay:10.37,2013-10-04 04:35:00,
2013-10-03 21:40:00,66.1,18.5,29.74,NNW,329,10.0,17.0,16,0.00,CLR,,0.00,WeatherDisplay:10.37,2013-10-04 04:40:00,
2013-10-03 21:45:00,66.0,18.5,29.75,NNW,338,8.0,16.0,16,0.00,CLR,,0.00,WeatherDisplay:10.37,2013-10-04 04:45:00,
2013-10-03 21:50:00,66.0,17.0,29.75,NNW,341,9.0,21.0,15,0.00,CLR,,0.00,WeatherDisplay:10.37,2013-10-04 04:50:00,
2013-10-03 22:00:00,65.6,16.7,29.75,NNW,348,7.0,20.0,15,0.00,CLR,,0.00,WeatherDisplay:10.37,2013-10-04 05:00:00,
2013-10-03 22:05:00,65.6,16.6,29.76,NNW,339,9.0,20.0,15,0.00,CLR,,0.00,WeatherDisplay:10.37,2013-10-04 05:05:00,
2013-10-03 22:10:00,65.6,16.6,29.76,NNW,338,9.0,20.0,15,0.00,CLR,,0.00,WeatherDisplay:10.37,2013-10-04 05:10:00,
2013-10-03 22:20:00,65.3,16.4,29.77,NNW,334,6.0,13.0,15,0.00,CLR,,0.00,WeatherDisplay:10.37,2013-10-04 05:20:00,
2013-10-03 22:30:00,64.8,14.4,29.76,NNW,337,9.0,14.0,14,0.00,CLR,,0.00,WeatherDisplay:10.37,2013-10-04 05:30:00,
2013-10-03 22:35:00,65.0,14.6,29.76,NNW,339,13.0,17.0,14,0.00,CLR,,0.00,WeatherDisplay:10.37,2013-10-04 05:35:00,
2013-10-03 22:40:00,65.0,14.6,29.77,NNW,339,10.0,20.0,14,0.00,CLR,,0.00,WeatherDisplay:10.37,2013-10-04 05:40:00,
2013-10-03 22:50:00,64.7,12.7,29.77,NNW,329,13.0,18.0,13,0.00,CLR,,0.00,WeatherDisplay:10.37,2013-10-04 05:50:00,
2013-10-03 22:55:00,64.5,12.5,29.78,NNW,329,10.0,20.0,13,0.00,CLR,,0.00,WeatherDisplay:10.37,2013-10-04 05:55:00,
2013-10-03 23:00:00,64.3,12.3,29.78,NW,324,9.0,17.0,13,0.00,CLR,,0.00,WeatherDisplay:10.37,2013-10-04 06:00:00,
2013-10-03 23:10:00,63.9,12.0,29.78,NNW,334,10.0,20.0,13,0.00,CLR,,0.00,WeatherDisplay:10.37,2013-10-04 06:10:00,
2013-10-03 23:20:00,63.7,11.9,29.79,NNW,339,10.0,18.0,13,0.00,CLR,,0.00,WeatherDisplay:10.37,2013-10-04 06:20:00,
2013-10-03 23:30:00,63.4,11.6,29.78,NNW,339,9.0,17.0,13,0.00,CLR,,0.00,WeatherDisplay:10.37,2013-10-04 06:30:00,
2013-10-03 23:40:00,63.4,11.6,29.79,NNW,338,10.0,20.0,13,0.00,CLR,,0.00,WeatherDisplay:10.37,2013-10-04 06:40:00,
2013-10-03 23:50:00,63.3,11.5,29.80,NNW,334,10.0,21.0,13,0.00,CLR,,0.00,WeatherDisplay:10.37,2013-10-04 06:50:00,